createdAt,value
2022-09-21T00:04:51.760Z,79.47
2022-09-21T00:09:56.389Z,79.46
2022-09-21T00:14:58.629Z,79.49
2022-09-21T00:20:05.622Z,79.57
2022-09-21T00:25:09.388Z,79.44
2022-09-21T00:30:11.734Z,79.38
2022-09-21T00:35:13.588Z,79.57
2022-09-21T00:40:15.388Z,79.72
2022-09-21T00:45:23.033Z,79.79
2022-09-21T00:50:25.515Z,79.70
2022-09-21T00:55:34.809Z,79.70
2022-09-21T01:00:37.763Z,79.67
2022-09-21T01:05:39.781Z,79.70
2022-09-21T01:10:58.705Z,79.76
2022-09-21T01:16:19.152Z,79.73
2022-09-21T01:21:24.658Z,79.78
2022-09-21T01:27:00.515Z,79.73
2022-09-21T01:32:37.392Z,79.75
2022-09-21T01:37:51.061Z,79.69
2022-09-21T01:42:56.636Z,79.67
2022-09-21T01:48:01.135Z,79.86
2022-09-21T01:53:13.862Z,79.71
2022-09-21T01:58:24.628Z,79.68
2022-09-21T02:03:37.250Z,79.64
2022-09-21T02:08:39.503Z,79.63
2022-09-21T02:13:45.911Z,79.58
2022-09-21T02:19:11.358Z,79.75
2022-09-21T02:24:25.324Z,79.59
2022-09-21T02:29:44.754Z,79.62
2022-09-21T02:34:53.082Z,79.51
2022-09-21T02:40:22.588Z,79.68
2022-09-21T02:45:34.353Z,79.63
2022-09-21T02:51:03.670Z,79.58
2022-09-21T02:56:08.972Z,79.51
2022-09-21T03:01:13.650Z,79.56
2022-09-21T03:06:15.484Z,79.55
2022-09-21T03:11:18.740Z,79.54
2022-09-21T03:16:21.625Z,79.72
2022-09-21T03:21:23.533Z,79.49
2022-09-21T03:26:25.533Z,79.66
2022-09-21T03:31:27.425Z,79.64
2022-09-21T03:36:29.277Z,79.63
2022-09-21T03:41:31.099Z,79.61
2022-09-21T03:46:35.451Z,79.69
2022-09-21T03:51:38.410Z,79.74
2022-09-21T03:56:40.429Z,79.66
2022-09-21T04:01:42.812Z,79.69
2022-09-21T04:06:46.310Z,79.72
2022-09-21T04:11:48.310Z,79.70
2022-09-21T04:16:52.353Z,79.69
2022-09-21T04:21:56.338Z,79.75
2022-09-21T04:26:58.214Z,79.70
2022-09-21T04:32:00.500Z,79.74
2022-09-21T04:37:02.749Z,79.64
2022-09-21T04:42:06.102Z,79.67
2022-09-21T04:47:08.759Z,79.70
2022-09-21T04:52:10.629Z,79.73
2022-09-21T04:57:14.479Z,79.70
2022-09-21T05:07:42.420Z,79.61
2022-09-21T05:12:44.458Z,79.61
2022-09-21T05:17:46.926Z,79.68
2022-09-21T05:22:48.934Z,79.67
2022-09-21T05:27:50.901Z,79.76
2022-09-21T05:33:04.566Z,79.81
2022-09-21T05:38:18.123Z,79.82
2022-09-21T05:43:20.690Z,79.80
2022-09-21T05:48:37.001Z,79.76
2022-09-21T05:53:57.015Z,79.89
2022-09-21T05:59:09.558Z,79.93
2022-09-21T06:04:13.047Z,79.73
2022-09-21T06:09:15.000Z,79.93
2022-09-21T06:14:16.916Z,80.10
2022-09-21T06:19:18.882Z,79.98
2022-09-21T06:24:21.912Z,79.95
2022-09-21T06:29:25.166Z,80.00
2022-09-21T06:34:27.036Z,80.01
2022-09-21T06:39:28.842Z,80.34
2022-09-21T06:44:31.018Z,80.17
2022-09-21T06:49:32.833Z,80.23
2022-09-21T06:54:34.807Z,80.07
2022-09-21T06:59:36.744Z,80.08
2022-09-21T07:04:38.626Z,80.16
2022-09-21T07:15:04.323Z,80.29
2022-09-21T07:20:08.437Z,80.35
2022-09-21T07:25:10.741Z,80.13
2022-09-21T07:30:12.722Z,80.29
2022-09-21T07:35:14.603Z,80.13
2022-09-21T07:40:16.737Z,80.47
2022-09-21T07:45:19.185Z,80.37
2022-09-21T07:50:21.964Z,80.16
2022-09-21T07:55:23.828Z,80.36
2022-09-21T08:00:25.853Z,80.25
2022-09-21T08:05:27.767Z,80.64
2022-09-21T08:10:32.075Z,80.36
2022-09-21T08:15:50.409Z,80.44
2022-09-21T08:21:00.197Z,80.48
2022-09-21T08:26:05.631Z,80.31
2022-09-21T08:31:09.822Z,80.37
2022-09-21T08:36:11.898Z,80.34
2022-09-21T08:41:24.672Z,80.56
2022-09-21T08:46:31.655Z,80.12
2022-09-21T08:51:38.476Z,80.20
2022-09-21T08:57:01.024Z,80.06
2022-09-21T09:02:05.740Z,79.96
2022-09-21T09:07:28.613Z,79.66
2022-09-21T09:12:45.843Z,79.76
2022-09-21T09:18:06.292Z,79.32
2022-09-21T09:23:21.764Z,79.49
2022-09-21T09:28:33.348Z,79.14
2022-09-21T09:33:53.078Z,79.30
2022-09-21T09:39:05.520Z,79.44
2022-09-21T09:44:41.006Z,79.25
2022-09-21T09:50:06.173Z,79.05
2022-09-21T09:55:20.998Z,78.76
2022-09-21T10:00:23.042Z,78.61
2022-09-21T10:05:32.896Z,78.79
2022-09-21T10:10:34.842Z,78.81
2022-09-21T10:15:43.171Z,78.58
2022-09-21T10:20:55.806Z,78.77
2022-09-21T10:26:06.614Z,78.73
2022-09-21T10:31:17.652Z,78.94
2022-09-21T10:36:35.274Z,78.73
2022-09-21T10:41:37.850Z,78.31
2022-09-21T10:46:39.791Z,78.03
2022-09-21T10:51:46.750Z,78.10
2022-09-21T10:57:04.343Z,77.95
2022-09-21T11:02:34.809Z,78.07
2022-09-21T11:07:39.407Z,78.35
2022-09-21T11:12:44.131Z,78.20
2022-09-21T11:17:57.371Z,77.71
2022-09-21T11:23:14.097Z,77.13
2022-09-21T11:28:43.391Z,77.02
2022-09-21T11:34:16.677Z,77.20
2022-09-21T11:39:48.266Z,77.36
2022-09-21T11:44:58.436Z,77.76
2022-09-21T11:50:29.148Z,77.39
2022-09-21T11:55:55.653Z,77.18
2022-09-21T12:01:36.242Z,76.93
2022-09-21T12:07:16.114Z,76.83
2022-09-21T12:12:24.946Z,76.84
2022-09-21T12:17:34.485Z,76.56
2022-09-21T12:22:41.320Z,76.67
2022-09-21T12:27:55.028Z,76.40
2022-09-21T12:33:08.551Z,76.16
2022-09-21T12:38:36.468Z,75.90
2022-09-21T12:43:57.763Z,75.71
2022-09-21T12:49:03.263Z,75.79
2022-09-21T12:54:17.590Z,75.63
2022-09-21T12:59:38.821Z,75.55
2022-09-21T13:04:46.332Z,75.17
2022-09-21T13:09:50.717Z,75.11
2022-09-21T13:15:04.667Z,74.85
2022-09-21T13:20:17.703Z,74.82
2022-09-21T13:25:28.377Z,74.90
2022-09-21T13:30:35.957Z,74.79
2022-09-21T13:35:48.037Z,74.94
2022-09-21T13:41:17.480Z,74.59
2022-09-21T13:46:37.209Z,74.77
2022-09-21T13:52:08.663Z,74.72
2022-09-21T13:57:28.696Z,74.76
2022-09-21T14:02:39.700Z,74.63
2022-09-21T14:07:41.673Z,74.59
2022-09-21T14:12:45.541Z,74.61
2022-09-21T14:18:15.786Z,73.96
2022-09-21T14:23:24.130Z,73.83
2022-09-21T14:28:35.226Z,73.11
2022-09-21T14:33:55.175Z,73.49
2022-09-21T14:39:03.111Z,73.64
2022-09-21T14:44:04.957Z,73.64
2022-09-21T14:49:48.524Z,73.44
2022-09-21T14:54:57.325Z,73.73
2022-09-21T15:00:23.470Z,73.81
2022-09-21T15:05:43.784Z,73.68
2022-09-21T15:10:57.711Z,73.81
2022-09-21T15:16:24.121Z,74.06
2022-09-21T15:21:33.003Z,74.15
2022-09-21T15:26:34.762Z,74.49
2022-09-21T15:31:39.381Z,74.55
2022-09-21T15:36:42.862Z,74.85
2022-09-21T15:41:48.123Z,75.01
2022-09-21T15:47:00.433Z,74.95
2022-09-21T15:52:14.047Z,75.23
2022-09-21T15:57:43.019Z,75.18
2022-09-21T16:03:07.011Z,75.37
2022-09-21T16:08:34.825Z,75.57
2022-09-21T16:13:59.156Z,75.71
2022-09-21T16:19:01.067Z,75.90
2022-09-21T16:24:18.709Z,76.02
2022-09-21T16:29:25.626Z,76.14
2022-09-21T16:34:35.341Z,76.05
2022-09-21T16:39:37.178Z,76.40
2022-09-21T16:44:44.683Z,76.39
2022-09-21T16:49:46.445Z,76.35
2022-09-21T16:54:49.873Z,76.52
2022-09-21T16:59:52.477Z,76.47
2022-09-21T17:04:54.297Z,76.50
2022-09-21T17:09:56.144Z,76.58
2022-09-21T17:14:59.452Z,76.63
2022-09-21T17:20:07.173Z,76.48
2022-09-21T17:25:09.365Z,76.62
2022-09-21T17:30:13.335Z,76.44
2022-09-21T17:35:38.906Z,76.60
2022-09-21T17:40:41.236Z,76.35
2022-09-21T17:46:04.841Z,76.45
2022-09-21T17:51:07.262Z,76.44
2022-09-21T17:56:32.853Z,76.61
2022-09-21T18:01:40.183Z,76.51
2022-09-21T18:06:42.377Z,76.34
2022-09-21T18:11:47.584Z,76.39
2022-09-21T18:16:59.341Z,76.42
2022-09-21T18:22:22.897Z,76.23
2022-09-21T18:27:24.992Z,76.21
2022-09-21T18:32:52.605Z,76.28
2022-09-21T18:38:31.925Z,76.24
2022-09-21T18:43:57.926Z,76.13
2022-09-21T18:49:12.168Z,76.21
2022-09-21T18:54:23.405Z,76.25
2022-09-21T18:59:29.606Z,76.19
2022-09-21T19:04:34.026Z,76.19
2022-09-21T19:09:51.400Z,76.23
2022-09-21T19:15:00.833Z,76.14
2022-09-21T19:20:36.716Z,76.27
2022-09-21T19:25:49.992Z,76.15
2022-09-21T19:31:00.463Z,76.09
2022-09-21T19:36:02.872Z,76.05
2022-09-21T19:41:06.358Z,75.84
2022-09-21T19:46:42.205Z,75.98
2022-09-21T19:51:52.602Z,75.81
2022-09-21T19:57:13.205Z,75.86
2022-09-21T20:02:31.910Z,75.85
2022-09-21T20:07:46.165Z,75.74
2022-09-21T20:13:05.784Z,75.66
2022-09-21T20:18:12.196Z,75.62
2022-09-21T20:23:14.244Z,75.60
2022-09-21T20:28:16.431Z,75.84
2022-09-21T20:33:23.286Z,75.68
2022-09-21T20:38:25.130Z,75.71
2022-09-21T20:43:32.299Z,75.54
2022-09-21T20:48:34.435Z,75.61
2022-09-21T20:53:36.350Z,75.61
2022-09-21T20:58:38.160Z,75.53
2022-09-21T21:03:40.016Z,75.45
2022-09-21T21:08:41.866Z,75.50
2022-09-21T21:13:43.970Z,75.59
2022-09-21T21:18:45.976Z,75.61
2022-09-21T21:24:09.834Z,75.65
2022-09-21T21:29:11.788Z,75.57
2022-09-21T21:34:14.134Z,75.73
2022-09-21T21:39:16.026Z,75.54
2022-09-21T21:44:17.944Z,75.59
2022-09-21T21:49:21.065Z,75.66
2022-09-21T21:54:24.283Z,75.76
2022-09-21T21:59:26.013Z,75.85
2022-09-21T22:04:28.110Z,75.67
2022-09-21T22:09:29.997Z,75.79
2022-09-21T22:14:31.960Z,75.77
2022-09-21T22:19:33.708Z,75.81
2022-09-21T22:24:35.519Z,75.73
2022-09-21T22:29:37.285Z,75.86
2022-09-21T22:34:39.542Z,75.85
2022-09-21T22:39:42.727Z,75.93
2022-09-21T22:44:44.467Z,75.82
2022-09-21T22:49:46.577Z,75.84
2022-09-21T22:54:48.443Z,75.93
2022-09-21T22:59:50.307Z,75.97
2022-09-21T23:04:52.181Z,75.97
2022-09-21T23:09:53.935Z,75.98
2022-09-21T23:14:55.768Z,75.98
2022-09-21T23:19:57.503Z,76.03
2022-09-21T23:24:59.227Z,75.90
2022-09-21T23:30:04.428Z,76.16
2022-09-21T23:35:06.352Z,75.98
2022-09-21T23:40:08.841Z,76.06
2022-09-21T23:45:10.867Z,76.11
2022-09-21T23:50:12.682Z,76.06
2022-09-21T23:55:14.546Z,76.07
